sensor_id;sensor_type;location;lat;lon;timestamp;P1;durP1;ratioP1;P2;durP2;ratioP2
47403;SDS011;33157;51.508;4.288;2023-05-16T00:00:45;16.55;;;2.33;;
47403;SDS011;33157;51.508;4.288;2023-05-16T00:05:50;23.55;;;3.17;;
47403;SDS011;33157;51.508;4.288;2023-05-16T00:11:02;18.35;;;4.00;;
47403;SDS011;33157;51.508;4.288;2023-05-16T00:16:09;14.73;;;2.85;;
47403;SDS011;33157;51.508;4.288;2023-05-16T00:21:34;20.30;;;2.83;;
47403;SDS011;33157;51.508;4.288;2023-05-16T00:26:42;15.25;;;2.40;;
47403;SDS011;33157;51.508;4.288;2023-05-16T00:31:44;27.40;;;3.10;;
47403;SDS011;33157;51.508;4.288;2023-05-16T00:36:50;18.35;;;3.92;;
47403;SDS011;33157;51.508;4.288;2023-05-16T00:41:59;19.80;;;2.80;;
47403;SDS011;33157;51.508;4.288;2023-05-16T00:47:02;13.35;;;3.42;;
47403;SDS011;33157;51.508;4.288;2023-05-16T00:52:07;21.20;;;3.78;;
47403;SDS011;33157;51.508;4.288;2023-05-16T00:57:14;15.05;;;2.78;;
47403;SDS011;33157;51.508;4.288;2023-05-16T01:02:16;13.27;;;2.67;;
47403;SDS011;33157;51.508;4.288;2023-05-16T01:07:19;24.35;;;3.35;;
47403;SDS011;33157;51.508;4.288;2023-05-16T01:12:23;17.73;;;3.05;;
47403;SDS011;33157;51.508;4.288;2023-05-16T01:17:55;15.88;;;2.67;;
47403;SDS011;33157;51.508;4.288;2023-05-16T01:28:30;16.77;;;3.45;;
47403;SDS011;33157;51.508;4.288;2023-05-16T01:33:33;16.80;;;2.55;;
47403;SDS011;33157;51.508;4.288;2023-05-16T01:38:49;16.92;;;2.85;;
47403;SDS011;33157;51.508;4.288;2023-05-16T01:44:15;16.77;;;3.13;;
47403;SDS011;33157;51.508;4.288;2023-05-16T01:49:40;19.95;;;2.75;;
47403;SDS011;33157;51.508;4.288;2023-05-16T01:55:02;21.20;;;3.63;;
47403;SDS011;33157;51.508;4.288;2023-05-16T02:00:05;15.93;;;3.10;;
47403;SDS011;33157;51.508;4.288;2023-05-16T02:05:07;14.63;;;2.58;;
47403;SDS011;33157;51.508;4.288;2023-05-16T02:10:12;14.63;;;2.38;;
47403;SDS011;33157;51.508;4.288;2023-05-16T02:15:18;16.08;;;2.17;;
47403;SDS011;33157;51.508;4.288;2023-05-16T02:20:20;22.48;;;2.53;;
47403;SDS011;33157;51.508;4.288;2023-05-16T02:30:37;18.23;;;2.47;;
47403;SDS011;33157;51.508;4.288;2023-05-16T02:35:38;12.05;;;1.98;;
47403;SDS011;33157;51.508;4.288;2023-05-16T02:40:42;13.67;;;2.40;;
47403;SDS011;33157;51.508;4.288;2023-05-16T02:45:47;21.58;;;3.03;;
47403;SDS011;33157;51.508;4.288;2023-05-16T02:50:48;18.55;;;2.88;;
47403;SDS011;33157;51.508;4.288;2023-05-16T02:55:49;15.40;;;2.45;;
47403;SDS011;33157;51.508;4.288;2023-05-16T03:00:54;12.45;;;2.42;;
47403;SDS011;33157;51.508;4.288;2023-05-16T03:05:55;22.80;;;3.70;;
47403;SDS011;33157;51.508;4.288;2023-05-16T03:10:56;20.08;;;2.70;;
47403;SDS011;33157;51.508;4.288;2023-05-16T03:15:57;14.60;;;2.80;;
47403;SDS011;33157;51.508;4.288;2023-05-16T03:21:00;19.17;;;2.13;;
47403;SDS011;33157;51.508;4.288;2023-05-16T03:26:04;15.27;;;2.97;;
47403;SDS011;33157;51.508;4.288;2023-05-16T03:31:13;14.15;;;2.10;;
47403;SDS011;33157;51.508;4.288;2023-05-16T03:36:14;13.48;;;2.30;;
47403;SDS011;33157;51.508;4.288;2023-05-16T03:41:21;13.30;;;3.10;;
47403;SDS011;33157;51.508;4.288;2023-05-16T03:46:29;14.43;;;2.55;;
47403;SDS011;33157;51.508;4.288;2023-05-16T03:51:31;10.57;;;2.13;;
47403;SDS011;33157;51.508;4.288;2023-05-16T03:56:32;14.05;;;3.05;;
47403;SDS011;33157;51.508;4.288;2023-05-16T04:01:34;19.48;;;2.90;;
47403;SDS011;33157;51.508;4.288;2023-05-16T04:06:35;10.00;;;2.20;;
47403;SDS011;33157;51.508;4.288;2023-05-16T04:11:47;12.68;;;2.25;;
47403;SDS011;33157;51.508;4.288;2023-05-16T04:16:48;14.13;;;2.55;;
47403;SDS011;33157;51.508;4.288;2023-05-16T04:21:56;17.60;;;1.83;;
47403;SDS011;33157;51.508;4.288;2023-05-16T04:26:58;18.77;;;2.33;;
47403;SDS011;33157;51.508;4.288;2023-05-16T04:32:02;11.25;;;1.90;;
47403;SDS011;33157;51.508;4.288;2023-05-16T04:37:04;10.75;;;2.25;;
47403;SDS011;33157;51.508;4.288;2023-05-16T04:42:10;10.48;;;2.05;;
47403;SDS011;33157;51.508;4.288;2023-05-16T04:47:11;17.70;;;3.22;;
47403;SDS011;33157;51.508;4.288;2023-05-16T04:52:12;17.58;;;3.10;;
47403;SDS011;33157;51.508;4.288;2023-05-16T04:57:19;20.13;;;2.63;;
47403;SDS011;33157;51.508;4.288;2023-05-16T05:02:30;16.05;;;2.47;;
47403;SDS011;33157;51.508;4.288;2023-05-16T05:07:38;12.52;;;1.83;;
47403;SDS011;33157;51.508;4.288;2023-05-16T05:12:40;19.23;;;3.63;;
47403;SDS011;33157;51.508;4.288;2023-05-16T05:17:41;12.95;;;2.30;;
47403;SDS011;33157;51.508;4.288;2023-05-16T05:22:47;11.98;;;2.35;;
47403;SDS011;33157;51.508;4.288;2023-05-16T05:27:57;17.10;;;3.92;;
47403;SDS011;33157;51.508;4.288;2023-05-16T05:33:04;11.27;;;2.45;;
47403;SDS011;33157;51.508;4.288;2023-05-16T05:38:15;14.90;;;2.42;;
47403;SDS011;33157;51.508;4.288;2023-05-16T05:43:22;15.02;;;1.70;;
47403;SDS011;33157;51.508;4.288;2023-05-16T05:48:25;15.52;;;2.20;;
47403;SDS011;33157;51.508;4.288;2023-05-16T05:53:34;8.00;;;1.65;;
47403;SDS011;33157;51.508;4.288;2023-05-16T05:58:35;11.68;;;2.30;;
47403;SDS011;33157;51.508;4.288;2023-05-16T06:03:41;13.77;;;3.08;;
47403;SDS011;33157;51.508;4.288;2023-05-16T06:08:52;10.07;;;2.50;;
47403;SDS011;33157;51.508;4.288;2023-05-16T06:13:56;12.93;;;2.55;;
47403;SDS011;33157;51.508;4.288;2023-05-16T06:19:05;16.23;;;1.90;;
47403;SDS011;33157;51.508;4.288;2023-05-16T06:24:09;12.38;;;1.70;;
47403;SDS011;33157;51.508;4.288;2023-05-16T06:29:15;12.85;;;1.80;;
47403;SDS011;33157;51.508;4.288;2023-05-16T06:34:22;8.65;;;2.00;;
47403;SDS011;33157;51.508;4.288;2023-05-16T06:39:39;12.70;;;2.22;;
47403;SDS011;33157;51.508;4.288;2023-05-16T06:44:40;8.57;;;2.35;;
47403;SDS011;33157;51.508;4.288;2023-05-16T06:49:41;12.43;;;2.47;;
47403;SDS011;33157;51.508;4.288;2023-05-16T06:54:44;10.15;;;1.50;;
47403;SDS011;33157;51.508;4.288;2023-05-16T06:59:46;7.78;;;1.95;;
47403;SDS011;33157;51.508;4.288;2023-05-16T07:05:00;6.90;;;1.25;;
47403;SDS011;33157;51.508;4.288;2023-05-16T07:10:03;6.65;;;1.02;;
47403;SDS011;33157;51.508;4.288;2023-05-16T07:15:08;5.68;;;1.60;;
47403;SDS011;33157;51.508;4.288;2023-05-16T07:20:12;9.00;;;1.27;;
47403;SDS011;33157;51.508;4.288;2023-05-16T07:30:22;9.57;;;1.40;;
47403;SDS011;33157;51.508;4.288;2023-05-16T07:35:22;6.70;;;1.23;;
47403;SDS011;33157;51.508;4.288;2023-05-16T07:40:26;12.43;;;1.65;;
47403;SDS011;33157;51.508;4.288;2023-05-16T07:45:30;8.50;;;1.45;;
47403;SDS011;33157;51.508;4.288;2023-05-16T07:50:42;7.60;;;1.48;;
47403;SDS011;33157;51.508;4.288;2023-05-16T07:55:44;4.63;;;1.20;;
47403;SDS011;33157;51.508;4.288;2023-05-16T08:00:51;8.90;;;1.50;;
47403;SDS011;33157;51.508;4.288;2023-05-16T08:05:56;4.10;;;0.80;;
47403;SDS011;33157;51.508;4.288;2023-05-16T08:10:57;5.25;;;1.80;;
47403;SDS011;33157;51.508;4.288;2023-05-16T08:16:02;6.03;;;1.13;;
47403;SDS011;33157;51.508;4.288;2023-05-16T08:21:08;7.82;;;1.30;;
47403;SDS011;33157;51.508;4.288;2023-05-16T08:26:09;6.20;;;1.25;;
47403;SDS011;33157;51.508;4.288;2023-05-16T08:31:13;6.82;;;1.05;;
47403;SDS011;33157;51.508;4.288;2023-05-16T08:36:14;5.38;;;1.33;;
47403;SDS011;33157;51.508;4.288;2023-05-16T08:41:18;6.57;;;1.15;;
47403;SDS011;33157;51.508;4.288;2023-05-16T08:46:20;4.82;;;1.35;;
47403;SDS011;33157;51.508;4.288;2023-05-16T08:51:24;5.50;;;1.30;;
47403;SDS011;33157;51.508;4.288;2023-05-16T08:56:27;7.03;;;1.15;;
47403;SDS011;33157;51.508;4.288;2023-05-16T09:01:29;5.45;;;1.45;;
47403;SDS011;33157;51.508;4.288;2023-05-16T09:06:37;5.38;;;1.45;;
47403;SDS011;33157;51.508;4.288;2023-05-16T09:11:55;5.20;;;1.55;;
47403;SDS011;33157;51.508;4.288;2023-05-16T09:17:06;4.85;;;1.25;;
47403;SDS011;33157;51.508;4.288;2023-05-16T09:22:15;7.38;;;1.30;;
47403;SDS011;33157;51.508;4.288;2023-05-16T09:27:18;4.90;;;0.95;;
47403;SDS011;33157;51.508;4.288;2023-05-16T09:32:19;7.60;;;1.30;;
47403;SDS011;33157;51.508;4.288;2023-05-16T09:37:23;3.30;;;1.00;;
47403;SDS011;33157;51.508;4.288;2023-05-16T09:42:32;6.75;;;1.00;;
47403;SDS011;33157;51.508;4.288;2023-05-16T09:47:34;7.30;;;1.60;;
47403;SDS011;33157;51.508;4.288;2023-05-16T09:52:49;5.55;;;1.17;;
47403;SDS011;33157;51.508;4.288;2023-05-16T09:57:51;6.35;;;1.10;;
47403;SDS011;33157;51.508;4.288;2023-05-16T10:02:52;10.00;;;1.67;;
47403;SDS011;33157;51.508;4.288;2023-05-16T10:08:03;7.35;;;1.17;;
47403;SDS011;33157;51.508;4.288;2023-05-16T10:13:12;6.90;;;1.38;;
47403;SDS011;33157;51.508;4.288;2023-05-16T10:18:13;7.80;;;1.27;;
47403;SDS011;33157;51.508;4.288;2023-05-16T10:23:24;6.65;;;1.05;;
47403;SDS011;33157;51.508;4.288;2023-05-16T10:28:27;6.25;;;1.13;;
47403;SDS011;33157;51.508;4.288;2023-05-16T10:33:29;7.55;;;1.67;;
47403;SDS011;33157;51.508;4.288;2023-05-16T10:38:31;7.63;;;1.58;;
47403;SDS011;33157;51.508;4.288;2023-05-16T10:43:43;7.38;;;1.00;;
47403;SDS011;33157;51.508;4.288;2023-05-16T10:48:55;6.80;;;1.38;;
47403;SDS011;33157;51.508;4.288;2023-05-16T10:54:03;5.05;;;1.17;;
47403;SDS011;33157;51.508;4.288;2023-05-16T10:59:25;7.53;;;1.95;;
47403;SDS011;33157;51.508;4.288;2023-05-16T11:04:48;6.05;;;1.35;;
47403;SDS011;33157;51.508;4.288;2023-05-16T11:09:52;10.20;;;1.60;;
47403;SDS011;33157;51.508;4.288;2023-05-16T11:15:18;7.93;;;1.45;;
47403;SDS011;33157;51.508;4.288;2023-05-16T11:20:29;6.50;;;1.33;;
47403;SDS011;33157;51.508;4.288;2023-05-16T11:25:37;7.43;;;1.40;;
47403;SDS011;33157;51.508;4.288;2023-05-16T11:30:50;5.82;;;1.30;;
47403;SDS011;33157;51.508;4.288;2023-05-16T11:41:12;6.55;;;1.20;;
47403;SDS011;33157;51.508;4.288;2023-05-16T11:46:16;6.70;;;1.45;;
47403;SDS011;33157;51.508;4.288;2023-05-16T11:51:18;8.43;;;1.40;;
47403;SDS011;33157;51.508;4.288;2023-05-16T11:56:34;6.75;;;1.00;;
47403;SDS011;33157;51.508;4.288;2023-05-16T12:01:37;3.70;;;0.82;;
47403;SDS011;33157;51.508;4.288;2023-05-16T12:06:39;8.05;;;1.58;;
47403;SDS011;33157;51.508;4.288;2023-05-16T12:11:43;7.22;;;1.70;;
47403;SDS011;33157;51.508;4.288;2023-05-16T12:16:45;3.53;;;0.98;;
47403;SDS011;33157;51.508;4.288;2023-05-16T12:21:57;6.53;;;1.17;;
47403;SDS011;33157;51.508;4.288;2023-05-16T12:26:58;4.07;;;1.20;;
47403;SDS011;33157;51.508;4.288;2023-05-16T12:31:59;6.25;;;1.48;;
47403;SDS011;33157;51.508;4.288;2023-05-16T12:37:02;5.55;;;1.08;;
47403;SDS011;33157;51.508;4.288;2023-05-16T12:42:10;3.67;;;0.70;;
47403;SDS011;33157;51.508;4.288;2023-05-16T12:47:33;4.88;;;1.15;;
47403;SDS011;33157;51.508;4.288;2023-05-16T12:53:00;6.65;;;1.23;;
47403;SDS011;33157;51.508;4.288;2023-05-16T12:58:02;5.53;;;0.90;;
47403;SDS011;33157;51.508;4.288;2023-05-16T13:03:04;5.97;;;1.00;;
47403;SDS011;33157;51.508;4.288;2023-05-16T13:08:10;5.85;;;1.38;;
47403;SDS011;33157;51.508;4.288;2023-05-16T13:13:11;3.90;;;1.38;;
47403;SDS011;33157;51.508;4.288;2023-05-16T13:18:12;5.97;;;1.10;;
47403;SDS011;33157;51.508;4.288;2023-05-16T13:23:14;4.90;;;0.90;;
47403;SDS011;33157;51.508;4.288;2023-05-16T13:28:31;3.45;;;1.17;;
47403;SDS011;33157;51.508;4.288;2023-05-16T13:33:33;4.03;;;0.90;;
47403;SDS011;33157;51.508;4.288;2023-05-16T13:38:43;6.13;;;1.00;;
47403;SDS011;33157;51.508;4.288;2023-05-16T13:43:45;5.40;;;0.93;;
47403;SDS011;33157;51.508;4.288;2023-05-16T13:48:48;4.85;;;1.00;;
47403;SDS011;33157;51.508;4.288;2023-05-16T13:53:50;4.67;;;0.90;;
47403;SDS011;33157;51.508;4.288;2023-05-16T13:58:56;5.60;;;0.93;;
47403;SDS011;33157;51.508;4.288;2023-05-16T14:04:28;5.72;;;0.95;;
47403;SDS011;33157;51.508;4.288;2023-05-16T14:09:33;3.70;;;1.02;;
47403;SDS011;33157;51.508;4.288;2023-05-16T14:14:55;3.53;;;1.00;;
47403;SDS011;33157;51.508;4.288;2023-05-16T14:19:56;4.85;;;0.95;;
47403;SDS011;33157;51.508;4.288;2023-05-16T14:25:09;3.80;;;1.15;;
47403;SDS011;33157;51.508;4.288;2023-05-16T14:30:12;3.20;;;0.77;;
47403;SDS011;33157;51.508;4.288;2023-05-16T14:35:19;4.03;;;0.68;;
47403;SDS011;33157;51.508;4.288;2023-05-16T14:40:20;3.63;;;0.80;;
47403;SDS011;33157;51.508;4.288;2023-05-16T14:50:33;4.32;;;0.90;;
47403;SDS011;33157;51.508;4.288;2023-05-16T14:55:34;4.85;;;1.17;;
47403;SDS011;33157;51.508;4.288;2023-05-16T15:00:40;6.82;;;1.52;;
47403;SDS011;33157;51.508;4.288;2023-05-16T15:05:45;5.85;;;1.00;;
47403;SDS011;33157;51.508;4.288;2023-05-16T15:11:11;6.00;;;1.15;;
47403;SDS011;33157;51.508;4.288;2023-05-16T15:16:13;5.15;;;1.00;;
47403;SDS011;33157;51.508;4.288;2023-05-16T15:21:25;3.60;;;0.95;;
47403;SDS011;33157;51.508;4.288;2023-05-16T15:26:28;2.65;;;0.80;;
47403;SDS011;33157;51.508;4.288;2023-05-16T15:31:30;5.10;;;1.23;;
47403;SDS011;33157;51.508;4.288;2023-05-16T15:36:36;2.90;;;1.00;;
47403;SDS011;33157;51.508;4.288;2023-05-16T15:41:43;5.55;;;0.85;;
47403;SDS011;33157;51.508;4.288;2023-05-16T15:46:47;3.60;;;1.15;;
47403;SDS011;33157;51.508;4.288;2023-05-16T15:51:48;5.05;;;1.10;;
47403;SDS011;33157;51.508;4.288;2023-05-16T15:56:53;3.72;;;1.20;;
47403;SDS011;33157;51.508;4.288;2023-05-16T16:01:59;4.95;;;1.00;;
47403;SDS011;33157;51.508;4.288;2023-05-16T16:07:36;4.95;;;0.80;;
47403;SDS011;33157;51.508;4.288;2023-05-16T16:12:56;6.82;;;1.50;;
47403;SDS011;33157;51.508;4.288;2023-05-16T16:18:02;5.13;;;1.00;;
47403;SDS011;33157;51.508;4.288;2023-05-16T16:23:07;8.27;;;1.50;;
47403;SDS011;33157;51.508;4.288;2023-05-16T16:28:14;4.33;;;1.03;;
47403;SDS011;33157;51.508;4.288;2023-05-16T16:33:27;2.63;;;1.10;;
47403;SDS011;33157;51.508;4.288;2023-05-16T16:38:28;5.97;;;1.23;;
47403;SDS011;33157;51.508;4.288;2023-05-16T16:43:30;6.47;;;1.40;;
47403;SDS011;33157;51.508;4.288;2023-05-16T16:48:39;5.63;;;1.30;;
47403;SDS011;33157;51.508;4.288;2023-05-16T16:53:40;4.85;;;1.50;;
47403;SDS011;33157;51.508;4.288;2023-05-16T16:58:50;8.63;;;1.63;;
47403;SDS011;33157;51.508;4.288;2023-05-16T17:03:53;5.85;;;1.50;;
47403;SDS011;33157;51.508;4.288;2023-05-16T17:09:05;6.80;;;1.80;;
47403;SDS011;33157;51.508;4.288;2023-05-16T17:14:12;5.55;;;2.05;;
47403;SDS011;33157;51.508;4.288;2023-05-16T17:19:29;10.00;;;1.98;;
47403;SDS011;33157;51.508;4.288;2023-05-16T17:24:31;8.68;;;2.28;;
47403;SDS011;33157;51.508;4.288;2023-05-16T17:29:33;11.45;;;1.98;;
47403;SDS011;33157;51.508;4.288;2023-05-16T17:34:46;12.52;;;2.38;;
47403;SDS011;33157;51.508;4.288;2023-05-16T17:39:48;12.65;;;2.03;;
47403;SDS011;33157;51.508;4.288;2023-05-16T17:44:50;8.05;;;1.73;;
47403;SDS011;33157;51.508;4.288;2023-05-16T17:49:53;11.95;;;1.85;;
47403;SDS011;33157;51.508;4.288;2023-05-16T17:55:02;8.35;;;1.67;;
47403;SDS011;33157;51.508;4.288;2023-05-16T18:00:08;13.75;;;2.10;;
47403;SDS011;33157;51.508;4.288;2023-05-16T18:05:15;10.02;;;2.35;;
47403;SDS011;33157;51.508;4.288;2023-05-16T18:10:22;11.27;;;2.17;;
47403;SDS011;33157;51.508;4.288;2023-05-16T18:15:32;20.10;;;2.53;;
47403;SDS011;33157;51.508;4.288;2023-05-16T18:20:41;8.52;;;2.53;;
47403;SDS011;33157;51.508;4.288;2023-05-16T18:25:48;16.52;;;2.78;;
47403;SDS011;33157;51.508;4.288;2023-05-16T18:31:17;14.00;;;2.25;;
47403;SDS011;33157;51.508;4.288;2023-05-16T18:36:20;12.13;;;1.88;;
47403;SDS011;33157;51.508;4.288;2023-05-16T18:41:24;6.38;;;1.70;;
47403;SDS011;33157;51.508;4.288;2023-05-16T18:46:29;14.57;;;2.22;;
47403;SDS011;33157;51.508;4.288;2023-05-16T18:51:31;7.25;;;1.55;;
47403;SDS011;33157;51.508;4.288;2023-05-16T18:56:34;10.50;;;1.88;;
47403;SDS011;33157;51.508;4.288;2023-05-16T19:01:39;12.00;;;2.10;;
47403;SDS011;33157;51.508;4.288;2023-05-16T19:06:42;8.18;;;2.03;;
47403;SDS011;33157;51.508;4.288;2023-05-16T19:11:44;10.23;;;1.63;;
47403;SDS011;33157;51.508;4.288;2023-05-16T19:16:58;12.18;;;1.88;;
47403;SDS011;33157;51.508;4.288;2023-05-16T19:27:07;13.43;;;2.65;;
47403;SDS011;33157;51.508;4.288;2023-05-16T19:32:08;7.97;;;1.80;;
47403;SDS011;33157;51.508;4.288;2023-05-16T19:37:11;16.27;;;2.45;;
47403;SDS011;33157;51.508;4.288;2023-05-16T19:42:19;9.18;;;2.10;;
47403;SDS011;33157;51.508;4.288;2023-05-16T19:47:20;12.70;;;2.15;;
47403;SDS011;33157;51.508;4.288;2023-05-16T19:52:26;10.18;;;2.50;;
47403;SDS011;33157;51.508;4.288;2023-05-16T19:57:33;12.63;;;2.63;;
47403;SDS011;33157;51.508;4.288;2023-05-16T20:03:01;8.30;;;1.73;;
47403;SDS011;33157;51.508;4.288;2023-05-16T20:08:04;13.05;;;1.90;;
47403;SDS011;33157;51.508;4.288;2023-05-16T20:13:18;13.37;;;2.73;;
47403;SDS011;33157;51.508;4.288;2023-05-16T20:18:28;12.43;;;2.40;;
47403;SDS011;33157;51.508;4.288;2023-05-16T20:23:40;12.77;;;2.95;;
47403;SDS011;33157;51.508;4.288;2023-05-16T20:28:53;12.90;;;2.30;;
47403;SDS011;33157;51.508;4.288;2023-05-16T20:34:02;15.63;;;2.05;;
47403;SDS011;33157;51.508;4.288;2023-05-16T20:39:05;9.90;;;2.75;;
47403;SDS011;33157;51.508;4.288;2023-05-16T20:44:31;17.05;;;3.15;;
47403;SDS011;33157;51.508;4.288;2023-05-16T20:49:35;12.85;;;2.47;;
47403;SDS011;33157;51.508;4.288;2023-05-16T20:55:00;10.35;;;2.45;;
47403;SDS011;33157;51.508;4.288;2023-05-16T21:00:02;13.25;;;2.40;;
47403;SDS011;33157;51.508;4.288;2023-05-16T21:05:10;17.77;;;2.60;;
47403;SDS011;33157;51.508;4.288;2023-05-16T21:10:12;15.75;;;3.20;;
47403;SDS011;33157;51.508;4.288;2023-05-16T21:15:14;16.02;;;3.15;;
47403;SDS011;33157;51.508;4.288;2023-05-16T21:20:23;10.73;;;2.38;;
47403;SDS011;33157;51.508;4.288;2023-05-16T21:25:29;12.40;;;3.10;;
47403;SDS011;33157;51.508;4.288;2023-05-16T21:30:33;13.38;;;3.03;;
47403;SDS011;33157;51.508;4.288;2023-05-16T21:35:34;17.27;;;3.20;;
47403;SDS011;33157;51.508;4.288;2023-05-16T21:40:44;13.52;;;2.90;;
47403;SDS011;33157;51.508;4.288;2023-05-16T21:45:47;11.00;;;2.92;;
47403;SDS011;33157;51.508;4.288;2023-05-16T21:50:49;16.98;;;3.35;;
47403;SDS011;33157;51.508;4.288;2023-05-16T21:55:50;13.07;;;3.10;;
47403;SDS011;33157;51.508;4.288;2023-05-16T22:00:53;14.90;;;3.80;;
47403;SDS011;33157;51.508;4.288;2023-05-16T22:05:54;10.25;;;3.20;;
47403;SDS011;33157;51.508;4.288;2023-05-16T22:11:08;12.75;;;3.13;;
47403;SDS011;33157;51.508;4.288;2023-05-16T22:16:20;15.10;;;2.88;;
47403;SDS011;33157;51.508;4.288;2023-05-16T22:26:28;14.93;;;3.65;;
47403;SDS011;33157;51.508;4.288;2023-05-16T22:31:33;16.80;;;3.80;;
47403;SDS011;33157;51.508;4.288;2023-05-16T22:36:40;17.63;;;4.53;;
47403;SDS011;33157;51.508;4.288;2023-05-16T22:41:42;18.45;;;4.07;;
47403;SDS011;33157;51.508;4.288;2023-05-16T22:46:47;11.07;;;2.72;;
47403;SDS011;33157;51.508;4.288;2023-05-16T22:51:48;22.35;;;4.15;;
47403;SDS011;33157;51.508;4.288;2023-05-16T22:56:49;13.27;;;3.05;;
47403;SDS011;33157;51.508;4.288;2023-05-16T23:01:55;15.13;;;3.90;;
47403;SDS011;33157;51.508;4.288;2023-05-16T23:12:02;17.45;;;4.07;;
47403;SDS011;33157;51.508;4.288;2023-05-16T23:17:11;14.20;;;4.20;;
47403;SDS011;33157;51.508;4.288;2023-05-16T23:22:14;11.40;;;3.80;;
47403;SDS011;33157;51.508;4.288;2023-05-16T23:27:17;10.35;;;3.55;;
47403;SDS011;33157;51.508;4.288;2023-05-16T23:32:23;12.82;;;3.47;;
47403;SDS011;33157;51.508;4.288;2023-05-16T23:37:33;14.38;;;3.30;;
47403;SDS011;33157;51.508;4.288;2023-05-16T23:42:37;16.95;;;3.88;;
47403;SDS011;33157;51.508;4.288;2023-05-16T23:47:41;18.67;;;4.10;;
47403;SDS011;33157;51.508;4.288;2023-05-16T23:52:43;14.80;;;4.13;;
47403;SDS011;33157;51.508;4.288;2023-05-16T23:57:44;16.27;;;3.85;;
